Time;durP1;ratioP1;P1;durP2;ratioP2;P2;SDS_P1;SDS_P2;PMS_P1;PMS_P2;Temp;Humidity;BMP_temperature;BMP_pressure;BME280_temperature;BME280_humidity;BME280_pressure;Samples;Min_cycle;Max_cycle;Signal;HPM_P1;HPM_P2
2022/09/25 00:00:44;;;;;;;6.95;3.92;;;;;;;8.27;71.07;99719.44;4939053;29;20027;-88
2022/09/25 00:03:10;;;;;;;5.03;3.97;;;;;;;8.20;71.39;99718.81;4939138;29;20414;-89
2022/09/25 00:05:36;;;;;;;5.78;3.83;;;;;;;8.22;71.12;99714.81;4954539;29;20058;-88
2022/09/25 00:08:03;;;;;;;6.95;4.38;;;;;;;8.24;71.38;99712.69;4938818;29;20084;-88
2022/09/25 00:10:28;;;;;;;10.93;4.70;;;;;;;8.07;70.75;99682.38;4920643;29;20043;-88
2022/09/25 00:12:54;;;;;;;8.10;4.95;;;;;;;8.25;71.14;99710.81;4903641;29;20110;-88
2022/09/25 00:15:20;;;;;;;8.05;4.32;;;;;;;8.21;70.91;99702.44;4903516;29;20406;-88
2022/09/25 00:17:45;;;;;;;6.75;4.38;;;;;;;8.15;71.38;99692.69;4919679;29;20494;-88
2022/09/25 00:20:11;;;;;;;7.70;4.90;;;;;;;8.21;71.37;99702.44;4935078;29;20450;-88
2022/09/25 00:22:36;;;;;;;9.43;4.63;;;;;;;8.08;71.50;99702.78;4922603;29;20437;-88
2022/09/25 00:25:02;;;;;;;7.00;5.10;;;;;;;8.08;71.53;99700.09;4954206;29;20031;-89
2022/09/25 00:27:27;;;;;;;8.23;4.95;;;;;;;8.03;71.64;99683.91;4938399;29;20143;-88
2022/09/25 00:29:53;;;;;;;6.45;4.25;;;;;;;7.94;72.08;99680.84;4924708;29;20176;-88
2022/09/25 00:32:18;;;;;;;6.88;4.00;;;;;;;7.96;71.90;99688.63;4919257;29;20479;-88
2022/09/25 00:34:44;;;;;;;8.52;4.30;;;;;;;7.97;71.64;99688.41;4931381;29;20015;-88
2022/09/25 00:37:09;;;;;;;6.55;3.90;;;;;;;7.96;71.44;99677.91;4938185;29;20094;-88
2022/09/25 00:39:35;;;;;;;5.85;4.03;;;;;;;7.87;71.66;99691.72;4922418;29;20031;-88
2022/09/25 00:42:00;;;;;;;7.45;4.13;;;;;;;7.75;72.20;99677.56;4937941;29;20474;-88
2022/09/25 00:45:20;;;;;;;5.18;4.20;;;;;;;7.87;72.74;99696.28;4937713;29;20023;-88
2022/09/25 00:47:53;;;;;;;6.78;4.30;;;;;;;7.74;72.63;99684.00;4880526;29;20480;-88
2022/09/25 00:50:31;;;;;;;6.30;4.10;;;;;;;7.77;72.05;99680.81;4941928;29;20035;-88
2022/09/25 00:53:27;;;;;;;6.75;4.50;;;;;;;7.80;72.42;99690.25;4938172;28;20051;-88
2022/09/25 00:55:53;;;;;;;12.88;4.75;;;;;;;7.77;72.08;99690.75;4904475;29;20040;-88
2022/09/25 00:58:20;;;;;;;7.75;3.97;;;;;;;7.62;72.70;99656.44;4886708;29;20028;-89
2022/09/25 01:00:45;;;;;;;5.82;4.10;;;;;;;7.62;72.54;99662.63;4969776;28;20031;-88
2022/09/25 01:03:11;;;;;;;8.30;4.05;;;;;;;7.76;72.17;99684.56;4953768;29;20031;-88
2022/09/25 01:05:37;;;;;;;7.30;4.22;;;;;;;7.72;72.72;99680.75;4921940;29;20027;-88
2022/09/25 01:08:04;;;;;;;8.38;4.50;;;;;;;7.60;72.49;99664.72;4922065;29;20090;-88
2022/09/25 01:10:30;;;;;;;5.05;3.72;;;;;;;7.57;72.64;99659.03;4919293;29;20023;-88
2022/09/25 01:12:56;;;;;;;5.88;4.20;;;;;;;7.55;72.48;99658.47;4918463;29;20032;-88
2022/09/25 01:15:26;;;;;;;4.88;3.55;;;;;;;7.55;72.32;99666.50;4935735;29;20090;-88
2022/09/25 01:18:03;;;;;;;5.18;3.33;;;;;;;7.60;72.51;99683.47;4954151;28;20023;-88
2022/09/25 01:20:29;;;;;;;6.15;3.75;;;;;;;7.59;72.85;99673.81;4938609;29;20496;-89
2022/09/25 01:22:54;;;;;;;7.03;3.47;;;;;;;7.52;73.11;99675.84;4954869;29;20027;-88
2022/09/25 01:25:25;;;;;;;5.97;3.33;;;;;;;7.48;73.32;99666.66;4953329;29;20062;-88
2022/09/25 01:28:19;;;;;;;8.02;4.40;;;;;;;7.51;73.71;99679.56;4953152;29;20035;-88
2022/09/25 01:30:45;;;;;;;7.68;4.53;;;;;;;7.39;73.57;99676.94;4916371;29;20024;-88
2022/09/25 01:33:17;;;;;;;8.10;4.80;;;;;;;7.41;73.84;99682.06;4899522;29;20546;-88
2022/09/25 01:35:48;;;;;;;10.85;4.35;;;;;;;7.35;74.22;99681.16;4903070;29;20102;-88
2022/09/25 01:38:30;;;;;;;10.13;5.40;;;;;;;7.22;74.15;99660.00;4919047;29;20391;-88
2022/09/25 01:41:18;;;;;;;7.65;4.40;;;;;;;7.20;74.14;99656.75;4903236;29;20046;-88
2022/09/25 01:43:50;;;;;;;8.32;4.40;;;;;;;7.17;73.71;99660.72;4937602;29;20090;-88
2022/09/25 01:46:24;;;;;;;7.80;4.47;;;;;;;7.09;73.99;99661.09;4937882;29;20031;-88
2022/09/25 01:48:53;;;;;;;5.82;4.13;;;;;;;7.12;74.41;99681.22;4921278;29;20019;-88
2022/09/25 01:51:21;;;;;;;6.50;4.28;;;;;;;7.03;74.10;99664.72;4937064;29;20058;-88
2022/09/25 01:53:53;;;;;;;8.85;4.07;;;;;;;7.11;74.03;99683.09;4936743;29;20081;-88
2022/09/25 01:56:32;;;;;;;9.95;4.60;;;;;;;6.94;74.18;99663.50;4937380;29;20034;-88
2022/09/25 01:59:43;;;;;;;8.20;4.97;;;;;;;6.97;74.54;99679.06;4937404;29;20039;-89
2022/09/25 02:02:12;;;;;;;10.10;5.45;;;;;;;6.88;74.10;99662.56;4949112;28;20122;-88
2022/09/25 02:04:40;;;;;;;6.38;4.63;;;;;;;6.77;74.73;99650.03;4910269;29;20124;-88
2022/09/25 02:07:08;;;;;;;12.23;5.28;;;;;;;6.81;73.92;99653.88;4921616;29;20039;-88
2022/09/25 02:09:43;;;;;;;6.78;4.88;;;;;;;6.77;74.59;99658.06;4916961;29;20498;-88
2022/09/25 02:12:12;;;;;;;10.25;5.53;;;;;;;6.90;74.75;99673.84;4941016;29;20478;-89
2022/09/25 02:14:42;;;;;;;11.60;5.68;;;;;;;6.75;74.62;99665.53;4940965;29;20109;-88
2022/09/25 02:17:09;;;;;;;8.52;5.35;;;;;;;6.73;74.51;99663.06;4941094;29;20481;-89
2022/09/25 02:22:24;;;;;;;12.52;5.72;;;;;;;6.86;73.52;99665.47;4943620;29;20046;-89
2022/09/25 02:24:55;;;;;;;9.57;6.68;;;;;;;6.85;73.96;99663.06;4940257;29;20031;-89
2022/09/25 02:27:21;;;;;;;10.95;5.93;;;;;;;6.91;73.23;99656.75;4941551;29;20046;-89
2022/09/25 02:29:46;;;;;;;10.38;5.65;;;;;;;7.02;73.09;99665.81;4941521;29;20023;-91
2022/09/25 02:32:13;;;;;;;8.52;5.47;;;;;;;7.03;73.08;99662.84;4925640;29;20027;-92
2022/09/25 02:34:38;;;;;;;10.77;6.90;;;;;;;7.08;72.64;99681.72;4925620;29;20027;-92
2022/09/25 02:37:11;;;;;;;12.00;6.57;;;;;;;6.96;72.91;99658.72;4924873;29;20061;-91
2022/09/25 02:39:36;;;;;;;9.82;5.40;;;;;;;6.92;73.35;99653.00;4940835;29;20106;-91
2022/09/25 02:42:25;;;;;;;10.65;5.82;;;;;;;7.07;72.80;99680.06;4925134;29;20050;-91
2022/09/25 02:44:53;;;;;;;10.40;6.32;;;;;;;7.16;72.59;99679.69;4956175;29;20039;-92
2022/09/25 02:47:47;;;;;;;12.15;6.13;;;;;;;7.20;72.53;99676.34;4958130;29;20027;-91
2022/09/25 02:50:38;;;;;;;9.88;5.20;;;;;;;7.22;72.21;99686.78;4956640;29;20039;-91
2022/09/25 02:53:49;;;;;;;8.40;5.43;;;;;;;7.20;72.39;99691.56;4952859;29;20051;-92
2022/09/25 02:56:23;;;;;;;8.65;5.22;;;;;;;7.15;72.02;99686.13;4943488;29;20420;-92
2022/09/25 02:58:51;;;;;;;11.10;5.75;;;;;;;7.16;72.00;99677.88;4951957;29;20458;-91
2022/09/25 03:01:17;;;;;;;9.05;6.05;;;;;;;6.93;72.82;99667.22;4905588;29;20221;-90
2022/09/25 03:03:43;;;;;;;9.60;5.78;;;;;;;6.81;73.10;99664.56;4905511;29;20031;-91
2022/09/25 03:06:09;;;;;;;15.30;6.47;;;;;;;6.70;73.55;99668.06;4905165;29;20115;-91
2022/09/25 03:08:36;;;;;;;9.95;5.40;;;;;;;6.70;73.96;99681.44;4921319;29;20036;-91
2022/09/25 03:11:03;;;;;;;8.65;5.50;;;;;;;6.58;73.51;99662.72;4905672;29;20035;-91
2022/09/25 03:13:32;;;;;;;9.35;5.45;;;;;;;6.57;74.00;99677.97;4921384;29;20068;-91
2022/09/25 03:16:03;;;;;;;8.93;5.35;;;;;;;6.54;74.35;99681.13;4921938;29;20063;-91
2022/09/25 03:18:30;;;;;;;9.63;5.57;;;;;;;6.43;74.20;99663.22;4934175;29;20038;-92
2022/09/25 03:20:55;;;;;;;10.73;5.50;;;;;;;6.47;74.48;99678.59;4902223;29;20036;-91
2022/09/25 03:23:21;;;;;;;10.57;6.20;;;;;;;6.47;74.53;99680.44;4902008;29;20043;-91
2022/09/25 03:25:47;;;;;;;8.77;5.57;;;;;;;6.42;74.51;99669.63;4886560;29;20032;-91
2022/09/25 03:28:13;;;;;;;10.25;6.22;;;;;;;6.43;74.85;99679.28;4902443;29;20483;-91
2022/09/25 03:30:42;;;;;;;9.73;6.45;;;;;;;6.34;74.67;99662.78;4923993;29;20027;-91
2022/09/25 03:33:09;;;;;;;8.57;6.05;;;;;;;6.46;74.29;99697.53;4924461;29;20035;-91
2022/09/25 03:35:35;;;;;;;8.68;5.40;;;;;;;6.31;74.36;99670.44;4924386;29;20027;-92
2022/09/25 03:38:00;;;;;;;10.90;5.85;;;;;;;6.26;74.52;99669.28;4939620;29;20031;-91
2022/09/25 03:40:26;;;;;;;10.63;5.97;;;;;;;6.33;74.31;99677.19;4923483;29;20131;-91
2022/09/25 03:42:51;;;;;;;10.18;6.00;;;;;;;6.31;74.70;99668.59;4924292;29;20027;-91
2022/09/25 03:45:17;;;;;;;11.13;6.13;;;;;;;6.16;74.72;99654.88;4923380;29;20031;-91
2022/09/25 03:47:42;;;;;;;10.18;6.10;;;;;;;6.18;74.51;99664.25;4923907;29;20030;-91
2022/09/25 03:50:08;;;;;;;10.02;6.43;;;;;;;6.14;74.88;99663.09;4939908;29;20023;-91
2022/09/25 03:52:34;;;;;;;14.68;6.68;;;;;;;6.12;74.69;99659.88;4939145;29;20040;-90
2022/09/25 03:54:59;;;;;;;12.77;6.70;;;;;;;6.17;75.06;99667.19;4923233;29;20493;-91
2022/09/25 03:57:25;;;;;;;12.30;6.78;;;;;;;6.19;74.82;99673.13;4939341;29;20034;-91
2022/09/25 03:59:51;;;;;;;16.33;6.32;;;;;;;6.11;74.98;99671.59;4938673;29;20023;-91
2022/09/25 04:02:16;;;;;;;12.63;7.03;;;;;;;6.15;75.17;99677.31;4923243;29;20027;-91
2022/09/25 04:04:44;;;;;;;10.15;6.13;;;;;;;6.07;75.60;99662.41;4938856;29;20031;-91
2022/09/25 04:07:10;;;;;;;15.23;7.72;;;;;;;6.05;75.33;99656.50;4939785;28;20493;-90
2022/09/25 04:09:36;;;;;;;11.52;7.28;;;;;;;6.05;75.23;99668.00;4928039;29;20398;-91
2022/09/25 04:12:01;;;;;;;13.93;7.47;;;;;;;6.01;74.94;99688.19;4920592;29;20026;-91
2022/09/25 04:14:27;;;;;;;11.50;6.82;;;;;;;6.11;74.99;99695.66;4946180;29;20027;-90
2022/09/25 04:16:52;;;;;;;10.63;7.00;;;;;;;5.95;75.91;99672.28;4939131;29;20082;-91
2022/09/25 04:19:18;;;;;;;22.00;7.30;;;;;;;5.96;75.67;99679.28;4922802;29;20030;-90
2022/09/25 04:21:43;;;;;;;10.18;6.38;;;;;;;5.98;75.67;99675.31;4939139;29;20030;-91
2022/09/25 04:26:53;;;;;;;10.55;6.28;;;;;;;6.10;75.01;99680.69;4941697;29;20098;-90
2022/09/25 04:29:21;;;;;;;10.98;6.53;;;;;;;6.10;74.72;99671.81;4922531;29;20027;-90
2022/09/25 04:33:44;;;;;;;10.70;6.63;;;;;;;6.13;75.33;99679.41;4939638;29;20094;-90
2022/09/25 04:34:33;;;;;;;11.25;6.85;;;;;;;6.13;74.79;99664.16;4941596;29;20027;-90
2022/09/25 04:37:00;;;;;;;12.43;6.32;;;;;;;6.24;74.37;99674.03;4939243;29;20494;-91
2022/09/25 04:39:25;;;;;;;16.98;6.60;;;;;;;6.12;74.60;99670.56;4909757;29;20034;-91
2022/09/25 04:41:54;;;;;;;12.57;6.63;;;;;;;6.22;74.34;99681.47;4885523;29;20028;-90
2022/09/25 04:44:20;;;;;;;12.25;7.07;;;;;;;6.43;73.77;99677.44;4885803;29;20059;-91
2022/09/25 04:46:45;;;;;;;10.95;6.72;;;;;;;6.45;73.90;99675.34;4900857;29;20028;-90
2022/09/25 04:49:10;;;;;;;9.77;6.22;;;;;;;6.76;73.08;99680.50;4917211;29;20482;-90
2022/09/25 04:51:36;;;;;;;13.45;6.90;;;;;;;6.86;73.18;99684.22;4938295;29;20062;-90
2022/09/25 04:54:02;;;;;;;15.65;7.72;;;;;;;6.78;72.60;99673.06;4938243;29;20051;-90
2022/09/25 04:56:27;;;;;;;15.52;6.90;;;;;;;6.71;73.00;99667.84;4938484;28;20051;-89
2022/09/25 04:58:52;;;;;;;15.77;7.35;;;;;;;6.80;72.93;99684.34;4932899;29;20031;-91
2022/09/25 05:01:19;;;;;;;9.50;6.38;;;;;;;6.72;72.95;99690.06;4919424;29;20038;-90
2022/09/25 05:03:48;;;;;;;10.90;6.40;;;;;;;6.82;72.18;99687.59;4908243;29;20038;-90
2022/09/25 05:06:14;;;;;;;12.77;6.82;;;;;;;6.76;72.73;99677.84;4938416;29;20046;-91
2022/09/25 05:08:40;;;;;;;11.48;7.28;;;;;;;6.72;73.25;99674.00;4938130;29;20054;-90
2022/09/25 05:11:06;;;;;;;10.98;6.70;;;;;;;6.88;72.86;99689.34;4938329;29;20117;-90
2022/09/25 05:13:32;;;;;;;11.38;6.75;;;;;;;6.84;73.08;99672.94;4919349;29;20031;-90
2022/09/25 05:15:57;;;;;;;11.32;6.72;;;;;;;6.90;72.93;99681.88;4935200;29;20509;-90
2022/09/25 05:18:23;;;;;;;12.60;6.72;;;;;;;6.92;72.79;99679.78;4919705;29;20024;-90
2022/09/25 05:20:48;;;;;;;10.75;6.45;;;;;;;7.00;72.37;99687.44;4921026;29;20023;-91
2022/09/25 05:23:15;;;;;;;12.25;6.72;;;;;;;7.19;71.78;99681.91;4920456;29;20372;-91
2022/09/25 05:25:40;;;;;;;16.08;9.65;;;;;;;7.32;71.78;99703.06;4938585;29;20034;-91
2022/09/25 05:28:06;;;;;;;15.93;7.75;;;;;;;7.36;71.59;99690.81;4938479;29;20093;-90
2022/09/25 05:30:32;;;;;;;15.23;8.40;;;;;;;7.36;71.24;99676.59;4938144;29;20031;-90
2022/09/25 05:32:57;;;;;;;14.35;7.65;;;;;;;7.69;70.87;99682.03;4921957;29;20037;-90
2022/09/25 05:35:23;;;;;;;15.23;7.80;;;;;;;7.79;70.50;99678.72;4921815;29;20398;-90
2022/09/25 05:37:49;;;;;;;13.15;7.50;;;;;;;7.87;70.33;99681.00;4922188;29;20033;-90
2022/09/25 05:40:15;;;;;;;12.73;8.25;;;;;;;8.09;69.92;99675.72;4937366;29;20031;-90
2022/09/25 05:42:42;;;;;;;16.35;8.63;;;;;;;8.22;69.14;99679.94;4922060;29;20071;-90
2022/09/25 05:45:11;;;;;;;13.48;8.50;;;;;;;8.29;69.15;99659.09;4918928;29;20031;-90
2022/09/25 05:47:38;;;;;;;12.10;8.05;;;;;;;8.44;68.88;99674.63;4915513;29;20638;-90
2022/09/25 05:50:03;;;;;;;15.88;9.05;;;;;;;8.54;68.63;99673.97;4929431;29;20054;-90
2022/09/25 05:52:30;;;;;;;17.55;9.10;;;;;;;8.53;68.68;99674.22;4937118;29;20050;-90
2022/09/25 05:54:55;;;;;;;17.45;9.65;;;;;;;8.60;68.33;99666.81;4921335;29;20456;-90
2022/09/25 05:57:22;;;;;;;16.83;10.80;;;;;;;8.64;68.65;99671.44;4953761;29;20039;-91
2022/09/25 05:59:48;;;;;;;17.35;10.98;;;;;;;8.80;67.81;99679.69;4937753;29;20030;-91
2022/09/25 06:02:14;;;;;;;23.00;11.02;;;;;;;8.71;68.03;99668.56;4921508;29;20023;-91
2022/09/25 06:04:39;;;;;;;20.80;10.75;;;;;;;8.80;68.39;99677.81;4921538;29;20046;-91
2022/09/25 06:07:05;;;;;;;16.35;11.38;;;;;;;8.89;68.54;99680.88;4953157;29;20496;-91
2022/09/25 06:09:30;;;;;;;17.75;9.43;;;;;;;8.98;68.26;99689.31;4942582;29;20027;-90
2022/09/25 06:11:56;;;;;;;18.38;10.68;;;;;;;8.84;68.51;99664.69;4918443;29;20028;-90
2022/09/25 06:14:21;;;;;;;18.02;9.85;;;;;;;8.92;67.53;99658.88;4927927;29;20094;-90
2022/09/25 06:16:49;;;;;;;15.85;9.73;;;;;;;9.06;67.60;99670.88;4937421;29;20090;-89
2022/09/25 06:19:16;;;;;;;12.95;9.20;;;;;;;9.05;67.37;99649.66;4937650;29;20049;-90
2022/09/25 06:21:42;;;;;;;15.10;8.05;;;;;;;9.20;67.25;99663.25;4954762;29;20114;-90
2022/09/25 06:24:09;;;;;;;12.98;8.13;;;;;;;9.34;67.29;99660.16;4936970;29;20034;-90
2022/09/25 06:26:35;;;;;;;9.65;7.25;;;;;;;9.54;65.50;99660.34;4953472;28;20027;-90
2022/09/25 06:29:02;;;;;;;8.90;6.15;;;;;;;9.68;64.91;99666.94;4937314;29;20079;-90
2022/09/25 06:31:28;;;;;;;9.25;6.57;;;;;;;9.81;64.37;99665.72;4922176;29;20042;-90
2022/09/25 06:33:53;;;;;;;10.70;6.90;;;;;;;10.00;64.06;99654.56;4936930;29;20470;-90
2022/09/25 06:36:22;;;;;;;12.32;8.32;;;;;;;9.98;63.98;99646.78;4921882;29;20027;-89
2022/09/25 06:38:48;;;;;;;10.10;6.30;;;;;;;10.24;62.88;99655.00;4969326;28;20023;-90
2022/09/25 06:41:13;;;;;;;9.77;6.22;;;;;;;10.50;62.19;99672.19;4921645;29;20038;-91
2022/09/25 06:43:39;;;;;;;8.68;5.75;;;;;;;10.54;62.56;99661.69;4936900;29;20074;-90
2022/09/25 06:46:04;;;;;;;9.35;5.60;;;;;;;10.78;61.88;99664.78;4937141;29;20023;-90
2022/09/25 06:48:30;;;;;;;9.68;5.57;;;;;;;10.86;61.73;99662.38;4953848;29;20026;-90
2022/09/25 06:50:56;;;;;;;9.05;5.40;;;;;;;11.14;61.53;99671.09;4937402;28;20100;-90
2022/09/25 06:53:23;;;;;;;10.82;5.68;;;;;;;11.26;61.12;99662.78;4940967;29;20530;-91
2022/09/25 06:55:48;;;;;;;8.05;5.13;;;;;;;11.47;60.53;99680.63;4940544;29;20042;-88
2022/09/25 06:58:19;;;;;;;11.15;5.88;;;;;;;11.59;59.69;99668.78;4940385;29;20087;-88
2022/09/25 07:00:45;;;;;;;8.73;5.95;;;;;;;11.71;59.64;99659.34;4922061;29;20027;-88
2022/09/25 07:05:55;;;;;;;8.55;5.90;;;;;;;12.26;58.97;99659.63;4942995;29;20096;-88
2022/09/25 07:08:20;;;;;;;9.35;5.53;;;;;;;12.47;58.25;99665.81;4940616;29;20057;-88
2022/09/25 07:10:49;;;;;;;10.77;5.80;;;;;;;12.59;58.09;99670.09;4940445;29;20031;-88
2022/09/25 07:13:23;;;;;;;10.20;6.75;;;;;;;12.74;57.44;99676.28;4924760;29;20586;-88
2022/09/25 07:16:10;;;;;;;10.55;7.85;;;;;;;12.94;57.15;99658.34;4956247;28;20026;-88
2022/09/25 07:18:35;;;;;;;15.88;8.07;;;;;;;13.16;56.96;99660.69;4936220;29;20102;-88
2022/09/25 07:21:11;;;;;;;10.23;6.80;;;;;;;13.51;56.52;99675.94;4920446;29;20050;-89
2022/09/25 07:23:37;;;;;;;12.30;6.78;;;;;;;13.52;56.77;99661.31;4939839;28;20050;-88
2022/09/25 07:26:23;;;;;;;6.00;4.90;;;;;;;13.71;55.72;99661.44;4923829;29;20553;-88
2022/09/25 07:28:56;;;;;;;6.55;4.88;;;;;;;13.91;54.96;99657.78;4924960;29;20027;-89
2022/09/25 07:31:27;;;;;;;9.35;5.60;;;;;;;14.09;54.62;99659.00;4955805;28;20027;-89
2022/09/25 07:33:52;;;;;;;7.10;4.93;;;;;;;14.32;54.07;99667.44;4956029;28;20110;-89
2022/09/25 07:36:18;;;;;;;8.35;4.32;;;;;;;14.44;53.42;99658.91;4939433;29;20050;-89
2022/09/25 07:38:47;;;;;;;9.32;4.60;;;;;;;14.46;52.73;99648.59;4939191;29;20086;-88
2022/09/25 07:41:13;;;;;;;6.57;4.43;;;;;;;14.70;52.81;99665.72;4923977;29;20091;-89
2022/09/25 07:43:38;;;;;;;9.32;4.43;;;;;;;14.87;52.89;99664.44;4938997;29;20039;-89
2022/09/25 07:46:04;;;;;;;6.47;4.60;;;;;;;14.93;52.65;99642.38;4955112;29;20027;-89
2022/09/25 07:48:31;;;;;;;10.25;5.35;;;;;;;15.05;52.18;99639.25;4955076;28;20046;-89
2022/09/25 07:51:03;;;;;;;9.85;4.70;;;;;;;15.35;51.77;99638.00;4939131;29;20173;-89
2022/09/25 07:53:29;;;;;;;5.80;4.00;;;;;;;15.56;51.30;99629.56;4971638;28;20097;-89
2022/09/25 07:55:58;;;;;;;5.90;4.15;;;;;;;15.82;50.19;99643.59;4938884;29;20063;-88
2022/09/25 07:58:24;;;;;;;4.55;3.17;;;;;;;16.02;48.06;99630.75;4954961;28;20025;-89
2022/09/25 08:00:50;;;;;;;3.75;2.53;;;;;;;16.16;47.29;99621.56;4938949;29;20090;-89
2022/09/25 08:03:16;;;;;;;4.28;2.70;;;;;;;16.40;46.41;99631.44;4937940;29;20051;-89
2022/09/25 08:05:41;;;;;;;3.95;2.92;;;;;;;16.47;46.71;99620.97;4954535;29;20031;-89
2022/09/25 08:08:07;;;;;;;4.63;3.08;;;;;;;16.72;46.31;99627.00;4954510;29;20038;-89
2022/09/25 08:10:32;;;;;;;3.33;2.63;;;;;;;16.76;46.08;99606.25;4938608;29;20023;-89
2022/09/25 08:12:58;;;;;;;4.20;2.75;;;;;;;16.98;46.42;99607.47;4938725;29;20090;-90
2022/09/25 08:15:24;;;;;;;3.90;2.70;;;;;;;16.98;45.42;99616.44;4921114;29;20072;-90
2022/09/25 08:17:50;;;;;;;3.13;2.50;;;;;;;17.06;45.25;99609.47;4935403;29;20027;-89
2022/09/25 08:20:15;;;;;;;5.38;3.15;;;;;;;17.12;45.37;99602.78;4935521;29;20034;-89
2022/09/25 08:22:41;;;;;;;3.60;2.70;;;;;;;17.09;44.82;99587.09;4903852;29;20110;-89
2022/09/25 08:25:06;;;;;;;4.57;2.30;;;;;;;17.27;43.68;99593.50;4919387;29;20422;-88
2022/09/25 08:27:38;;;;;;;3.15;2.20;;;;;;;17.38;43.42;99590.22;4919704;29;20039;-89
2022/09/25 08:30:04;;;;;;;5.05;2.35;;;;;;;17.38;44.95;99581.25;4935320;29;20027;-88
2022/09/25 08:32:32;;;;;;;4.20;2.33;;;;;;;17.52;43.49;99584.72;4954310;29;20472;-88
2022/09/25 08:34:58;;;;;;;3.38;2.20;;;;;;;17.63;43.71;99581.75;4938004;29;20031;-87
2022/09/25 08:37:23;;;;;;;3.33;2.45;;;;;;;17.68;44.35;99578.88;4954367;29;20433;-90
2022/09/25 08:39:49;;;;;;;3.72;2.35;;;;;;;17.83;43.74;99581.28;4938098;29;20026;-88
2022/09/25 08:42:20;;;;;;;3.08;2.33;;;;;;;18.10;43.20;99596.63;4938656;29;20087;-88
2022/09/25 08:44:48;;;;;;;4.97;2.33;;;;;;;18.16;42.46;99581.75;4953928;28;20099;-88
2022/09/25 08:50:19;;;;;;;5.30;2.00;;;;;;;18.60;41.02;99581.13;4954074;28;20529;-90
2022/09/25 08:52:47;;;;;;;2.60;1.90;;;;;;;18.72;40.36;99564.94;4937583;29;20047;-90
2022/09/25 08:58:42;;;;;;;3.50;2.10;;;;;;;18.94;39.95;99555.84;4924214;29;20083;-88
2022/09/25 09:01:12;;;;;;;6.60;2.25;;;;;;;19.02;39.59;99546.06;4903944;29;20122;-88
2022/09/25 09:03:47;;;;;;;2.90;2.00;;;;;;;19.22;39.79;99545.44;4923195;29;20101;-90
2022/09/25 09:06:14;;;;;;;2.63;1.90;;;;;;;19.44;37.67;99554.56;4938499;29;20033;-90
2022/09/25 09:08:40;;;;;;;2.88;1.75;;;;;;;19.45;38.47;99535.13;4938125;29;20098;-90
2022/09/25 09:11:18;;;;;;;6.38;2.35;;;;;;;19.51;38.96;99538.50;4953517;29;20033;-90
2022/09/25 09:13:50;;;;;;;6.28;2.13;;;;;;;19.61;37.79;99535.44;4965393;28;20430;-90
2022/09/25 09:16:16;;;;;;;5.53;2.28;;;;;;;19.84;37.65;99554.34;4918884;29;20047;-90
2022/09/25 09:18:41;;;;;;;3.47;2.13;;;;;;;19.87;37.04;99518.97;4940096;29;20055;-88
2022/09/25 09:21:24;;;;;;;2.70;2.00;;;;;;;20.08;36.50;99540.13;4953114;29;20027;-88
2022/09/25 09:24:05;;;;;;;2.35;1.70;;;;;;;20.13;34.46;99524.34;4953351;29;20508;-87
2022/09/25 09:26:36;;;;;;;2.15;1.58;;;;;;;20.35;34.15;99534.19;4938895;29;20031;-88
2022/09/25 09:29:12;;;;;;;2.83;1.88;;;;;;;20.35;32.88;99515.03;4954244;29;20023;-88
2022/09/25 09:31:55;;;;;;;3.00;1.70;;;;;;;20.58;32.25;99526.53;4953509;29;20078;-88
2022/09/25 09:34:30;;;;;;;3.03;1.80;;;;;;;20.75;32.05;99541.22;4938420;29;20038;-87
2022/09/25 09:37:05;;;;;;;2.05;1.48;;;;;;;20.88;31.23;99534.72;4954491;29;20038;-87
2022/09/25 09:39:39;;;;;;;1.98;1.48;;;;;;;20.96;31.25;99525.63;4952735;29;20027;-88
2022/09/25 09:42:36;;;;;;;3.13;1.85;;;;;;;21.06;31.64;99521.66;4954831;29;20110;-87
2022/09/25 09:45:31;;;;;;;2.38;1.52;;;;;;;21.15;31.28;99524.34;4952667;29;20074;-88
2022/09/25 09:48:30;;;;;;;3.35;1.42;;;;;;;21.12;31.18;99512.13;4946707;29;20043;-86
2022/09/25 09:51:07;;;;;;;2.13;1.48;;;;;;;21.19;31.04;99509.66;4913300;29;20071;-88
2022/09/25 09:53:53;;;;;;;2.53;1.77;;;;;;;21.28;31.42;99497.81;4906553;28;20047;-88
2022/09/25 09:56:24;;;;;;;2.47;1.63;;;;;;;21.39;30.73;99498.97;4953908;28;20098;-88
2022/09/25 09:58:56;;;;;;;3.22;1.80;;;;;;;21.50;31.02;99507.59;4953404;28;20418;-88
2022/09/25 10:01:28;;;;;;;2.85;1.83;;;;;;;21.45;31.05;99481.22;4954568;29;20070;-89
2022/09/25 10:04:03;;;;;;;;;;;;;;;21.61;30.68;99503.31;4953323;29;20015;-88
2022/09/25 10:06:29;;;;;;;2.78;1.55;;;;;;;21.67;30.28;99501.94;4954015;29;19993;-88
2022/09/25 10:08:54;;;;;;;3.13;2.03;;;;;;;21.68;31.32;99489.84;4921068;29;20474;-88
2022/09/25 10:11:19;;;;;;;2.25;1.80;;;;;;;21.67;30.34;99468.28;4953112;29;20028;-86
2022/09/25 10:13:45;;;;;;;2.15;1.65;;;;;;;21.73;30.69;99472.41;4952496;29;20019;-89
2022/09/25 10:16:15;;;;;;;2.20;1.58;;;;;;;21.76;30.71;99464.25;4936919;29;20023;-88
2022/09/25 10:19:05;;;;;;;1.73;1.58;;;;;;;22.00;30.53;99473.66;4952940;28;20011;-87
2022/09/25 10:21:36;;;;;;;2.10;1.45;;;;;;;22.06;30.65;99474.22;4953720;28;20033;-87
2022/09/25 10:24:02;;;;;;;2.33;1.70;;;;;;;22.05;29.80;99469.88;4936433;29;20418;-86
2022/09/25 10:26:32;;;;;;;2.22;1.77;;;;;;;22.14;30.00;99474.13;4954957;28;20054;-87
2022/09/25 10:29:01;;;;;;;2.53;1.80;;;;;;;22.15;29.53;99462.00;4956617;29;20031;-87
2022/09/25 10:31:35;;;;;;;4.03;1.48;;;;;;;22.21;29.12;99468.06;4956465;28;20469;-87
2022/09/25 10:34:04;;;;;;;2.75;1.85;;;;;;;22.38;29.12;99478.00;4956135;29;20106;-87
2022/09/25 10:36:31;;;;;;;3.13;1.95;;;;;;;22.47;29.39;99478.66;4956415;29;20023;-87
2022/09/25 10:38:56;;;;;;;1.73;1.27;;;;;;;22.52;28.89;99463.94;4957881;29;20019;-87
2022/09/25 10:41:22;;;;;;;2.45;1.50;;;;;;;22.59;28.72;99459.44;4957522;29;20093;-87
2022/09/25 10:43:51;;;;;;;3.75;1.77;;;;;;;22.67;28.69;99457.72;4940271;29;20505;-88
2022/09/25 10:50:09;;;;;;;2.92;1.40;;;;;;;22.72;28.98;99457.47;4957884;29;20117;-88
2022/09/25 10:52:08;;;;;;;2.47;2.00;;;;;;;22.60;29.74;99430.84;4956048;29;20497;-86
2022/09/25 10:54:34;;;;;;;2.03;1.55;;;;;;;22.65;29.85;99434.50;4955916;29;20038;-87
2022/09/25 10:56:59;;;;;;;3.13;1.48;;;;;;;22.71;28.71;99428.41;4940383;29;20487;-87
2022/09/25 10:59:25;;;;;;;2.95;1.50;;;;;;;22.87;29.12;99433.16;4939473;28;20074;-87
2022/09/25 11:01:51;;;;;;;2.67;1.65;;;;;;;22.91;29.29;99432.13;4955792;29;20030;-87
2022/09/25 11:04:21;;;;;;;2.80;1.70;;;;;;;23.05;28.82;99436.44;4939506;29;20085;-87
2022/09/25 11:07:03;;;;;;;2.15;1.80;;;;;;;23.16;28.85;99443.81;4955761;29;20102;-87
2022/09/25 11:09:31;;;;;;;2.30;1.75;;;;;;;23.13;28.20;99433.53;4955745;29;20118;-89
2022/09/25 11:12:07;;;;;;;2.63;1.50;;;;;;;23.22;28.90;99447.09;4971780;28;20521;-89
2022/09/25 11:14:33;;;;;;;2.15;1.50;;;;;;;23.15;28.93;99425.72;4955501;29;20166;-89
2022/09/25 11:17:00;;;;;;;1.85;1.45;;;;;;;23.09;29.08;99423.59;4940202;29;20031;-89
2022/09/25 11:19:30;;;;;;;1.73;1.40;;;;;;;23.17;28.66;99434.41;4939626;29;20031;-89
2022/09/25 11:22:09;;;;;;;2.20;1.60;;;;;;;23.28;28.24;99431.16;4955942;28;20028;-89
2022/09/25 11:24:39;;;;;;;2.33;1.70;;;;;;;23.24;28.20;99414.56;4945763;29;20024;-89
2022/09/25 11:27:19;;;;;;;2.20;1.40;;;;;;;23.28;28.14;99418.22;4936764;29;20414;-89
2022/09/25 11:29:53;;;;;;;4.70;1.88;;;;;;;23.32;28.56;99421.06;4908284;29;20087;-89
2022/09/25 11:32:39;;;;;;;4.85;3.00;;;;;;;23.29;28.95;99414.34;4917398;29;20025;-89
2022/09/25 11:35:18;;;;;;;2.20;1.60;;;;;;;23.32;28.06;99405.38;4947593;29;20114;-89
2022/09/25 11:37:59;;;;;;;2.00;1.50;;;;;;;23.26;28.30;99414.22;4955860;28;20026;-90
2022/09/25 11:44:05;;;;;;;2.65;1.63;;;;;;;23.37;28.18;99412.56;4955431;29;20085;-89
2022/09/25 11:46:55;;;;;;;2.30;1.60;;;;;;;23.31;26.77;99392.78;4956605;29;20039;-90
2022/09/25 11:49:25;;;;;;;2.47;1.70;;;;;;;23.38;26.92;99403.97;4955555;29;20064;-89
2022/09/25 11:52:06;;;;;;;2.33;1.52;;;;;;;23.39;27.83;99385.53;4955413;29;20035;-89
2022/09/25 11:54:51;;;;;;;3.97;2.53;;;;;;;23.40;28.36;99392.63;4955545;29;20058;-89
2022/09/25 11:57:30;;;;;;;9.25;3.30;;;;;;;23.39;27.98;99385.53;4954952;28;20027;-89
2022/09/25 12:00:37;;;;;;;6.07;2.20;;;;;;;23.39;27.54;99383.59;4954859;29;20499;-90
2022/09/25 12:03:19;;;;;;;1.77;1.42;;;;;;;23.40;26.59;99382.41;4941808;29;20027;-90
2022/09/25 12:06:00;;;;;;;2.42;1.63;;;;;;;23.42;26.93;99387.56;4900856;29;20115;-88
2022/09/25 12:08:56;;;;;;;4.50;1.58;;;;;;;23.43;26.94;99375.44;4918293;29;20028;-89